Time;durP1;ratioP1;P1;durP2;ratioP2;P2;SDS_P1;SDS_P2;PMS_P1;PMS_P2;Temp;Humidity;BMP_temperature;BMP_pressure;BME280_temperature;BME280_humidity;BME280_pressure;Samples;Min_cycle;Max_cycle;Signal;HPM_P1;HPM_P2
2022/04/10 00:01:38;;;;;;;22.45;3.20;;;;;;;;;;5025001;28;20064;-72
2022/04/10 00:04:05;;;;;;;17.40;3.63;;;;;;;;;;5007107;28;20085;-72
2022/04/10 00:06:31;;;;;;;23.50;3.92;;;;;;;;;;5024786;28;20050;-73
2022/04/10 00:08:57;;;;;;;19.20;2.95;;;;;;;;;;5024506;28;20053;-71
2022/04/10 00:11:23;;;;;;;21.27;4.50;;;;;;;;;;5024776;28;20125;-72
2022/04/10 00:13:49;;;;;;;23.23;4.63;;;;;;;;;;5024756;28;20513;-72
2022/04/10 00:16:15;;;;;;;17.95;3.17;;;;;;;;;;5024816;28;20118;-72
2022/04/10 00:18:41;;;;;;;27.73;4.55;;;;;;;;;;5006493;28;20097;-72
2022/04/10 00:21:07;;;;;;;23.67;4.22;;;;;;;;;;5024243;28;20141;-72
2022/04/10 00:23:34;;;;;;;19.70;3.28;;;;;;;;;;5024793;28;20065;-72
2022/04/10 00:26:00;;;;;;;13.00;3.70;;;;;;;;;;5007115;28;20049;-73
2022/04/10 00:28:26;;;;;;;16.48;3.45;;;;;;;;;;5024213;28;20069;-72
2022/04/10 00:30:52;;;;;;;26.77;4.05;;;;;;;;;;5006997;28;20109;-72
2022/04/10 00:33:18;;;;;;;28.88;5.32;;;;;;;;;;4990520;28;20405;-73
2022/04/10 00:35:44;;;;;;;23.35;4.70;;;;;;;;;;5024649;28;20049;-72
2022/04/10 00:38:11;;;;;;;22.85;4.30;;;;;;;;;;5024251;28;20045;-73
2022/04/10 00:40:37;;;;;;;15.95;3.72;;;;;;;;;;5024507;28;20113;-72
2022/04/10 00:43:03;;;;;;;19.55;3.67;;;;;;;;;;5006763;28;20125;-72
2022/04/10 00:45:29;;;;;;;15.80;3.22;;;;;;;;;;5024290;28;20062;-72
2022/04/10 00:47:55;;;;;;;21.20;3.55;;;;;;;;;;4986952;28;20042;-72
2022/04/10 00:50:22;;;;;;;23.10;3.65;;;;;;;;;;5004415;28;20057;-72
2022/04/10 00:52:50;;;;;;;23.60;3.92;;;;;;;;;;5019798;28;20129;-71
2022/04/10 00:55:17;;;;;;;21.33;4.07;;;;;;;;;;4991645;28;20045;-72
2022/04/10 00:57:46;;;;;;;15.05;3.25;;;;;;;;;;5024135;28;20253;-72
2022/04/10 01:00:13;;;;;;;13.65;2.58;;;;;;;;;;5023949;28;20121;-71
2022/04/10 01:02:40;;;;;;;22.58;4.22;;;;;;;;;;5024197;28;20085;-72
2022/04/10 01:05:07;;;;;;;16.83;2.80;;;;;;;;;;5023739;28;20042;-72
2022/04/10 01:07:33;;;;;;;13.32;2.97;;;;;;;;;;5024070;28;20128;-71
2022/04/10 01:09:59;;;;;;;14.02;3.15;;;;;;;;;;5023916;28;20552;-72
2022/04/10 01:12:25;;;;;;;19.00;2.90;;;;;;;;;;5008947;28;20445;-72
2022/04/10 01:14:52;;;;;;;15.10;2.78;;;;;;;;;;5027304;28;20046;-71
2022/04/10 01:17:18;;;;;;;14.50;2.72;;;;;;;;;;5009688;28;20041;-71
2022/04/10 01:19:44;;;;;;;16.80;2.95;;;;;;;;;;5009599;28;20057;-71
2022/04/10 01:22:13;;;;;;;21.00;4.47;;;;;;;;;;5026934;28;20085;-71
2022/04/10 01:24:40;;;;;;;15.85;2.22;;;;;;;;;;5027148;28;20124;-71
2022/04/10 01:27:06;;;;;;;17.57;2.83;;;;;;;;;;5009707;28;20053;-71
2022/04/10 01:29:33;;;;;;;9.10;2.70;;;;;;;;;;5027153;28;20653;-71
2022/04/10 01:32:00;;;;;;;17.00;3.30;;;;;;;;;;5026794;28;20053;-71
2022/04/10 01:34:26;;;;;;;33.63;3.60;;;;;;;;;;5027338;28;20535;-71
2022/04/10 01:36:52;;;;;;;12.00;2.95;;;;;;;;;;5009592;28;20068;-71
2022/04/10 01:39:18;;;;;;;14.95;2.60;;;;;;;;;;5026705;28;20045;-71
2022/04/10 01:41:48;;;;;;;17.90;3.42;;;;;;;;;;5026762;28;20058;-71
2022/04/10 01:44:14;;;;;;;16.73;2.88;;;;;;;;;;5009356;28;20045;-71
2022/04/10 01:46:40;;;;;;;15.88;2.97;;;;;;;;;;5026984;28;20052;-71
2022/04/10 01:49:07;;;;;;;19.92;3.85;;;;;;;;;;5026898;28;20092;-70
2022/04/10 01:51:34;;;;;;;20.03;3.60;;;;;;;;;;5026471;28;20046;-71
2022/04/10 01:54:00;;;;;;;14.20;3.08;;;;;;;;;;5026607;28;20427;-70
2022/04/10 01:56:26;;;;;;;16.67;3.42;;;;;;;;;;5009142;28;20496;-71
2022/04/10 01:58:53;;;;;;;20.00;4.15;;;;;;;;;;5026486;28;20073;-70
2022/04/10 02:01:19;;;;;;;21.80;4.50;;;;;;;;;;5026096;28;20085;-71
2022/04/10 02:03:50;;;;;;;17.02;4.97;;;;;;;;;;5026139;28;20094;-71
2022/04/10 02:06:17;;;;;;;19.00;3.72;;;;;;;;;;5008764;28;20100;-70
2022/04/10 02:08:43;;;;;;;12.90;2.70;;;;;;;;;;5026387;28;20113;-71
2022/04/10 02:11:11;;;;;;;13.32;3.75;;;;;;;;;;5026062;28;20046;-71
2022/04/10 02:13:37;;;;;;;;;;;;;;;;;;5026796;28;20429;-71
2022/04/10 02:16:03;;;;;;;15.80;3.22;;;;;;;;;;5026278;28;19953;-70
2022/04/10 02:18:29;;;;;;;19.00;4.32;;;;;;;;;;5008773;28;20045;-70
2022/04/10 02:20:55;;;;;;;20.65;3.92;;;;;;;;;;4984925;28;20534;-70
2022/04/10 02:23:21;;;;;;;16.85;4.07;;;;;;;;;;5006151;28;20141;-72
2022/04/10 02:25:47;;;;;;;18.33;3.92;;;;;;;;;;5005509;28;20054;-70
2022/04/10 02:28:14;;;;;;;25.70;3.40;;;;;;;;;;5006423;28;20061;-71
2022/04/10 02:30:40;;;;;;;23.67;3.63;;;;;;;;;;5025033;28;20042;-70
2022/04/10 02:33:06;;;;;;;15.13;3.30;;;;;;;;;;5008246;28;20088;-71
2022/04/10 02:35:32;;;;;;;16.85;3.05;;;;;;;;;;5008552;28;20046;-70
2022/04/10 02:37:58;;;;;;;17.30;2.95;;;;;;;;;;5008145;28;20096;-69
2022/04/10 02:40:24;;;;;;;16.88;3.30;;;;;;;;;;5008037;28;20046;-71
2022/04/10 02:42:50;;;;;;;13.70;2.55;;;;;;;;;;5008332;28;20114;-70
2022/04/10 02:45:16;;;;;;;15.27;2.75;;;;;;;;;;5007970;28;20053;-70
2022/04/10 02:47:42;;;;;;;18.45;2.75;;;;;;;;;;5008001;28;20133;-71
2022/04/10 02:50:09;;;;;;;21.33;4.30;;;;;;;;;;5025650;28;20046;-70
2022/04/10 02:52:35;;;;;;;17.80;2.72;;;;;;;;;;5025353;28;20050;-71
2022/04/10 02:55:01;;;;;;;14.30;2.60;;;;;;;;;;5025539;28;20045;-71
2022/04/10 02:57:27;;;;;;;15.43;4.18;;;;;;;;;;4991642;28;20096;-71
2022/04/10 02:59:53;;;;;;;11.88;2.97;;;;;;;;;;5025083;28;20117;-71
2022/04/10 03:02:19;;;;;;;11.98;2.88;;;;;;;;;;5007710;28;20073;-70
2022/04/10 03:04:45;;;;;;;13.10;2.75;;;;;;;;;;5007638;28;20131;-70
2022/04/10 03:07:11;;;;;;;15.27;2.42;;;;;;;;;;4991378;28;20109;-70
2022/04/10 03:09:37;;;;;;;13.50;3.35;;;;;;;;;;5007481;28;20045;-69
2022/04/10 03:12:04;;;;;;;10.50;2.25;;;;;;;;;;5007663;28;20289;-69
2022/04/10 03:14:31;;;;;;;12.70;2.53;;;;;;;;;;5025353;28;20045;-69
2022/04/10 03:16:57;;;;;;;15.48;3.28;;;;;;;;;;5007626;28;20046;-69
2022/04/10 03:19:23;;;;;;;9.85;2.47;;;;;;;;;;5007428;28;20046;-69
2022/04/10 03:21:49;;;;;;;14.18;2.28;;;;;;;;;;5007328;28;20062;-70
2022/04/10 03:24:15;;;;;;;10.52;3.13;;;;;;;;;;5024988;28;20053;-70
2022/04/10 03:26:41;;;;;;;9.27;2.30;;;;;;;;;;5024423;28;20088;-69
2022/04/10 03:29:08;;;;;;;11.00;2.95;;;;;;;;;;5024771;28;20038;-70
2022/04/10 03:31:34;;;;;;;13.32;2.40;;;;;;;;;;5025065;28;20052;-69
2022/04/10 03:34:00;;;;;;;5.15;1.70;;;;;;;;;;5024359;28;20050;-69
2022/04/10 03:36:26;;;;;;;15.75;2.60;;;;;;;;;;5024511;28;20070;-70
2022/04/10 03:38:52;;;;;;;11.05;2.42;;;;;;;;;;5024739;28;20060;-70
2022/04/10 03:41:18;;;;;;;7.38;2.10;;;;;;;;;;5024759;28;20137;-70
2022/04/10 03:43:44;;;;;;;8.65;2.03;;;;;;;;;;5007220;28;20053;-70
2022/04/10 03:46:10;;;;;;;15.23;2.25;;;;;;;;;;5024557;28;20046;-70
2022/04/10 03:48:36;;;;;;;9.23;2.17;;;;;;;;;;5007265;28;20596;-70
2022/04/10 03:51:03;;;;;;;10.10;1.80;;;;;;;;;;5006690;28;20449;-70
2022/04/10 03:53:29;;;;;;;9.02;2.17;;;;;;;;;;5007066;28;20493;-69
2022/04/10 03:55:55;;;;;;;12.25;2.20;;;;;;;;;;5006882;28;20189;-69
2022/04/10 03:58:21;;;;;;;11.48;2.33;;;;;;;;;;5024221;28;20074;-69
2022/04/10 04:00:47;;;;;;;7.72;2.20;;;;;;;;;;5024694;28;20049;-69
2022/04/10 04:03:14;;;;;;;11.02;1.80;;;;;;;;;;5024560;28;20054;-70
2022/04/10 04:05:40;;;;;;;10.00;2.25;;;;;;;;;;5006941;28;20056;-69
2022/04/10 04:08:06;;;;;;;10.63;1.67;;;;;;;;;;5024180;28;20053;-69
2022/04/10 04:10:33;;;;;;;7.55;1.67;;;;;;;;;;5024402;28;20440;-69
2022/04/10 04:12:59;;;;;;;8.70;1.40;;;;;;;;;;5006739;28;20107;-70
2022/04/10 04:15:26;;;;;;;7.20;1.45;;;;;;;;;;5024600;28;20093;-70
2022/04/10 04:17:52;;;;;;;13.15;3.35;;;;;;;;;;5006273;28;20100;-68
2022/04/10 04:20:18;;;;;;;4.70;1.50;;;;;;;;;;5024568;28;20042;-69
2022/04/10 04:22:45;;;;;;;10.65;1.92;;;;;;;;;;5006658;28;20057;-70
2022/04/10 04:25:11;;;;;;;7.85;2.55;;;;;;;;;;5024427;28;20061;-70
2022/04/10 04:27:38;;;;;;;12.52;3.45;;;;;;;;;;5023800;28;20049;-69
2022/04/10 04:30:05;;;;;;;14.80;2.88;;;;;;;;;;5024494;28;20076;-69
2022/04/10 04:32:31;;;;;;;7.25;1.63;;;;;;;;;;5024456;28;20410;-70
2022/04/10 04:34:57;;;;;;;8.98;1.58;;;;;;;;;;5024342;28;20048;-69
2022/04/10 04:37:23;;;;;;;7.03;1.75;;;;;;;;;;4990343;28;20106;-70
2022/04/10 04:39:49;;;;;;;12.60;2.25;;;;;;;;;;5023991;28;20046;-69
2022/04/10 04:42:15;;;;;;;9.23;1.80;;;;;;;;;;5024198;28;20479;-70
2022/04/10 04:44:41;;;;;;;9.63;2.65;;;;;;;;;;5024249;28;20077;-70
2022/04/10 04:47:08;;;;;;;5.65;1.38;;;;;;;;;;5009853;28;20056;-70
2022/04/10 04:49:34;;;;;;;4.93;1.67;;;;;;;;;;5028062;28;20099;-70
2022/04/10 04:52:00;;;;;;;11.48;1.65;;;;;;;;;;5010077;28;20103;-70
2022/04/10 04:54:26;;;;;;;5.97;1.85;;;;;;;;;;5010201;28;20042;-70
2022/04/10 04:56:53;;;;;;;7.85;2.00;;;;;;;;;;5027546;28;20097;-69
2022/04/10 04:59:19;;;;;;;8.82;1.70;;;;;;;;;;5027935;28;20054;-71
2022/04/10 05:01:45;;;;;;;8.10;1.92;;;;;;;;;;5027442;28;20140;-71
2022/04/10 05:04:12;;;;;;;10.30;2.40;;;;;;;;;;5027445;28;20401;-70
2022/04/10 05:06:38;;;;;;;9.35;1.75;;;;;;;;;;5027652;28;20052;-70
2022/04/10 05:09:05;;;;;;;5.97;1.90;;;;;;;;;;5027413;28;20105;-70
2022/04/10 05:11:31;;;;;;;10.68;1.90;;;;;;;;;;5027294;28;20080;-70
2022/04/10 05:13:58;;;;;;;9.43;2.03;;;;;;;;;;5009847;28;20121;-70
2022/04/10 05:16:24;;;;;;;8.05;2.97;;;;;;;;;;5027429;28;20053;-70
2022/04/10 05:18:50;;;;;;;14.18;2.35;;;;;;;;;;5009671;28;20042;-70
2022/04/10 05:21:16;;;;;;;11.82;2.20;;;;;;;;;;5004627;28;20058;-70
2022/04/10 05:23:42;;;;;;;11.32;2.20;;;;;;;;;;4989752;28;20047;-70
2022/04/10 05:26:09;;;;;;;8.88;2.33;;;;;;;;;;5007201;28;20114;-70
2022/04/10 05:28:35;;;;;;;10.52;2.42;;;;;;;;;;4990185;28;20053;-71
2022/04/10 05:31:02;;;;;;;15.25;3.03;;;;;;;;;;5007293;28;20046;-70
2022/04/10 05:33:28;;;;;;;10.87;1.80;;;;;;;;;;4989967;28;20119;-71
2022/04/10 05:35:55;;;;;;;12.88;2.25;;;;;;;;;;5007470;28;20052;-70
2022/04/10 05:38:22;;;;;;;8.02;1.90;;;;;;;;;;4989823;28;20054;-70
2022/04/10 05:40:52;;;;;;;7.78;1.95;;;;;;;;;;5007035;28;20039;-70
2022/04/10 05:43:22;;;;;;;14.27;2.70;;;;;;;;;;4989838;28;20138;-71
2022/04/10 05:45:49;;;;;;;11.68;2.28;;;;;;;;;;5007142;28;20509;-70
2022/04/10 05:48:15;;;;;;;9.63;1.70;;;;;;;;;;5007190;28;20053;-70
2022/04/10 05:50:41;;;;;;;10.88;1.88;;;;;;;;;;5007138;28;20406;-71
2022/04/10 05:53:07;;;;;;;10.98;2.75;;;;;;;;;;4989484;28;20053;-70
2022/04/10 05:55:33;;;;;;;9.18;1.85;;;;;;;;;;5007005;28;20045;-69
2022/04/10 05:58:01;;;;;;;11.60;2.55;;;;;;;;;;5006492;28;20050;-70
2022/04/10 06:00:27;;;;;;;12.48;2.65;;;;;;;;;;4989623;28;20050;-71
2022/04/10 06:02:54;;;;;;;16.02;2.47;;;;;;;;;;5006902;28;20057;-70
2022/04/10 06:05:20;;;;;;;13.93;3.15;;;;;;;;;;4989494;28;20053;-70
2022/04/10 06:07:47;;;;;;;17.02;2.67;;;;;;;;;;5006883;28;20051;-71
2022/04/10 06:10:13;;;;;;;9.25;2.17;;;;;;;;;;4988839;28;20046;-70
2022/04/10 06:12:39;;;;;;;11.75;2.58;;;;;;;;;;4989391;28;20561;-70
2022/04/10 06:15:05;;;;;;;9.00;2.28;;;;;;;;;;4989170;28;20098;-69
2022/04/10 06:17:31;;;;;;;6.90;2.15;;;;;;;;;;4989207;28;20085;-70
2022/04/10 06:19:58;;;;;;;12.15;3.13;;;;;;;;;;5006410;28;20073;-72
2022/04/10 06:22:24;;;;;;;5.95;2.38;;;;;;;;;;4969481;28;20050;-73
2022/04/10 06:24:54;;;;;;;11.43;2.13;;;;;;;;;;4969206;28;20110;-73
2022/04/10 06:27:20;;;;;;;11.73;2.10;;;;;;;;;;4969557;28;20047;-74
2022/04/10 06:29:47;;;;;;;11.70;2.28;;;;;;;;;;4969619;28;20099;-74
2022/04/10 06:32:13;;;;;;;16.20;3.30;;;;;;;;;;5000087;28;20296;-75
2022/04/10 06:34:39;;;;;;;18.27;2.75;;;;;;;;;;4985598;28;20141;-75
2022/04/10 06:37:07;;;;;;;13.95;2.75;;;;;;;;;;4986153;28;20055;-75
2022/04/10 06:39:33;;;;;;;16.30;2.80;;;;;;;;;;4987373;28;20561;-76
2022/04/10 06:42:00;;;;;;;11.52;2.78;;;;;;;;;;5005502;28;20097;-76
2022/04/10 06:44:26;;;;;;;15.95;2.65;;;;;;;;;;4989028;28;20046;-75
2022/04/10 06:46:52;;;;;;;15.98;2.75;;;;;;;;;;4988720;28;20046;-76
2022/04/10 06:49:19;;;;;;;14.23;2.40;;;;;;;;;;5006288;28;20098;-75
2022/04/10 06:51:45;;;;;;;14.50;3.33;;;;;;;;;;5005794;28;20054;-76
2022/04/10 06:54:11;;;;;;;11.63;2.70;;;;;;;;;;4968657;28;20302;-75
2022/04/10 06:56:37;;;;;;;18.10;2.67;;;;;;;;;;4969070;28;20051;-75
2022/04/10 06:59:03;;;;;;;12.90;2.20;;;;;;;;;;4986419;28;20049;-75
2022/04/10 07:01:30;;;;;;;13.80;2.22;;;;;;;;;;5001870;28;20049;-75
2022/04/10 07:03:58;;;;;;;12.35;2.83;;;;;;;;;;4988318;28;20051;-75
2022/04/10 07:06:24;;;;;;;13.82;3.58;;;;;;;;;;4988209;28;20263;-75
2022/04/10 07:08:50;;;;;;;9.82;2.42;;;;;;;;;;5004917;28;20057;-77
2022/04/10 07:11:16;;;;;;;10.88;2.58;;;;;;;;;;5005531;28;20502;-74
2022/04/10 07:13:42;;;;;;;13.57;2.88;;;;;;;;;;5005636;28;20117;-75
2022/04/10 07:16:09;;;;;;;15.15;2.38;;;;;;;;;;5005818;28;20038;-75
2022/04/10 07:18:35;;;;;;;14.30;2.45;;;;;;;;;;4988193;28;20057;-75
2022/04/10 07:21:01;;;;;;;15.43;2.85;;;;;;;;;;5005290;28;20038;-73
2022/04/10 07:23:43;;;;;;;12.05;3.13;;;;;;;;;;5025218;28;20067;-74
2022/04/10 07:26:14;;;;;;;11.57;2.53;;;;;;;;;;5025225;28;20461;-74
2022/04/10 07:28:40;;;;;;;14.13;2.22;;;;;;;;;;5024912;28;20548;-75
2022/04/10 07:31:07;;;;;;;14.13;2.50;;;;;;;;;;5022787;28;20037;-76
2022/04/10 07:33:33;;;;;;;7.57;2.17;;;;;;;;;;5023891;28;20042;-76
2022/04/10 07:35:59;;;;;;;11.13;2.60;;;;;;;;;;5022544;28;20053;-75
2022/04/10 07:38:26;;;;;;;14.75;1.92;;;;;;;;;;5007351;28;20054;-75
2022/04/10 07:40:52;;;;;;;14.93;1.85;;;;;;;;;;5024126;28;20048;-76
2022/04/10 07:43:18;;;;;;;16.02;2.47;;;;;;;;;;5024793;28;20053;-75
2022/04/10 07:48:29;;;;;;;5.30;1.65;;;;;;;;;;5024472;28;20056;-74
2022/04/10 07:50:57;;;;;;;9.35;1.60;;;;;;;;;;5006975;28;20081;-74
2022/04/10 07:53:23;;;;;;;;;;;;;;;;;;4994541;28;20499;-74
2022/04/10 07:55:49;;;;;;;13.00;2.20;;;;;;;;;;5004236;28;19981;-74
2022/04/10 07:58:15;;;;;;;2.42;1.02;;;;;;;;;;5024440;28;20452;-73
2022/04/10 08:00:41;;;;;;;12.80;3.00;;;;;;;;;;5012661;28;20042;-73
2022/04/10 08:03:07;;;;;;;7.97;1.63;;;;;;;;;;5004121;28;20182;-73
2022/04/10 08:05:34;;;;;;;10.60;1.73;;;;;;;;;;5022993;28;20041;-73
2022/04/10 08:08:01;;;;;;;15.35;2.33;;;;;;;;;;5004414;28;20080;-74
2022/04/10 08:10:29;;;;;;;11.90;1.58;;;;;;;;;;5003649;28;21243;-74
2022/04/10 08:12:55;;;;;;;9.23;1.50;;;;;;;;;;5004299;28;20050;-75
2022/04/10 08:15:21;;;;;;;8.60;1.75;;;;;;;;;;5001988;28;20046;-74
2022/04/10 08:17:47;;;;;;;9.25;1.92;;;;;;;;;;5027225;28;20049;-71
2022/04/10 08:20:14;;;;;;;19.65;1.95;;;;;;;;;;5023222;28;20853;-71
2022/04/10 08:22:40;;;;;;;8.85;2.42;;;;;;;;;;4992704;28;20054;-71
2022/04/10 08:25:11;;;;;;;10.48;2.40;;;;;;;;;;5025658;28;20117;-71
2022/04/10 08:27:38;;;;;;;10.35;1.70;;;;;;;;;;5025181;28;20046;-70
2022/04/10 08:30:04;;;;;;;10.57;3.25;;;;;;;;;;5026250;28;20042;-70
2022/04/10 08:32:37;;;;;;;8.63;1.67;;;;;;;;;;5026107;28;20065;-70
2022/04/10 08:35:04;;;;;;;11.15;1.90;;;;;;;;;;5028686;28;20045;-70
2022/04/10 08:37:30;;;;;;;9.02;1.33;;;;;;;;;;5007710;28;20135;-69
2022/04/10 08:39:56;;;;;;;8.27;1.55;;;;;;;;;;5006817;28;20049;-69
2022/04/10 08:42:22;;;;;;;7.18;1.73;;;;;;;;;;5025459;28;20087;-69
2022/04/10 08:44:48;;;;;;;16.95;2.42;;;;;;;;;;5017740;28;20405;-69
2022/04/10 08:47:20;;;;;;;14.23;1.40;;;;;;;;;;5019833;28;20099;-69
2022/04/10 08:49:47;;;;;;;8.20;2.05;;;;;;;;;;5004326;28;20058;-69
2022/04/10 08:52:13;;;;;;;15.77;2.40;;;;;;;;;;5025836;28;20030;-69
2022/04/10 08:54:42;;;;;;;15.07;2.50;;;;;;;;;;5019915;28;20048;-69
2022/04/10 08:57:08;;;;;;;8.55;1.83;;;;;;;;;;5020156;28;20037;-69
2022/04/10 08:59:35;;;;;;;11.98;1.40;;;;;;;;;;5018706;28;20398;-69
2022/04/10 09:02:01;;;;;;;5.20;1.30;;;;;;;;;;5025824;28;20049;-68
2022/04/10 09:04:27;;;;;;;6.82;1.52;;;;;;;;;;5023259;28;20042;-69
2022/04/10 09:07:02;;;;;;;12.90;1.95;;;;;;;;;;5020355;28;21429;-68
2022/04/10 09:09:28;;;;;;;6.18;1.85;;;;;;;;;;5022490;28;20042;-68
2022/04/10 09:11:55;;;;;;;9.48;1.90;;;;;;;;;;5008658;28;20124;-68
2022/04/10 09:14:22;;;;;;;10.10;1.90;;;;;;;;;;5025265;28;20046;-69
2022/04/10 09:17:08;;;;;;;10.55;1.65;;;;;;;;;;5023883;28;20084;-69
2022/04/10 09:19:37;;;;;;;4.45;1.60;;;;;;;;;;5024784;28;20042;-68
2022/04/10 09:22:22;;;;;;;6.70;1.23;;;;;;;;;;5023491;28;20065;-69
2022/04/10 09:25:23;;;;;;;5.40;1.42;;;;;;;;;;5021157;28;20050;-68
2022/04/10 09:27:52;;;;;;;8.18;1.52;;;;;;;;;;4971595;28;20051;-68
2022/04/10 09:30:18;;;;;;;5.57;1.25;;;;;;;;;;4976209;28;20078;-68
2022/04/10 09:32:46;;;;;;;7.22;1.98;;;;;;;;;;4972350;28;20045;-67
2022/04/10 09:35:13;;;;;;;8.07;2.13;;;;;;;;;;4978470;28;20079;-67
2022/04/10 09:37:45;;;;;;;10.40;1.42;;;;;;;;;;4975687;28;20044;-68
2022/04/10 09:40:28;;;;;;;10.98;1.90;;;;;;;;;;4969673;28;20046;-68
2022/04/10 09:43:07;;;;;;;11.55;2.90;;;;;;;;;;4976295;28;20059;-67
2022/04/10 09:45:43;;;;;;;11.77;2.70;;;;;;;;;;4972466;28;20058;-68
2022/04/10 09:48:30;;;;;;;8.23;1.63;;;;;;;;;;4978090;28;20082;-68
2022/04/10 09:51:01;;;;;;;7.82;1.52;;;;;;;;;;4956881;28;20053;-67
2022/04/10 09:53:27;;;;;;;8.73;1.40;;;;;;;;;;4976930;28;20047;-67
2022/04/10 09:55:54;;;;;;;10.15;1.73;;;;;;;;;;4977425;28;20055;-67
2022/04/10 09:58:21;;;;;;;4.53;1.30;;;;;;;;;;4978366;28;20061;-73
2022/04/10 10:00:48;;;;;;;9.57;1.63;;;;;;;;;;4978224;28;20534;-67
2022/04/10 10:03:15;;;;;;;4.45;1.40;;;;;;;;;;5016785;28;20110;-67
2022/04/10 10:05:41;;;;;;;4.97;1.63;;;;;;;;;;5023549;28;20077;-65
2022/04/10 10:08:08;;;;;;;14.25;2.13;;;;;;;;;;5023939;28;20052;-65
2022/04/10 10:10:36;;;;;;;15.87;1.60;;;;;;;;;;5021755;28;20042;-68
2022/04/10 10:13:07;;;;;;;8.82;1.80;;;;;;;;;;5007197;28;20046;-69
2022/04/10 10:15:33;;;;;;;10.07;1.77;;;;;;;;;;5004003;28;20140;-66
2022/04/10 10:18:01;;;;;;;5.30;0.90;;;;;;;;;;5011468;28;20054;-69
2022/04/10 10:20:27;;;;;;;;;;;;;;;;;;5005046;28;20058;-68
2022/04/10 10:22:54;;;;;;;15.45;1.52;;;;;;;;;;5023476;28;19929;-67
2022/04/10 10:25:27;;;;;;;9.93;1.90;;;;;;;;;;5023334;28;20041;-65
2022/04/10 10:27:56;;;;;;;3.38;0.95;;;;;;;;;;5039332;28;20049;-66
2022/04/10 10:30:25;;;;;;;10.07;1.63;;;;;;;;;;5005742;28;20045;-69
2022/04/10 10:32:56;;;;;;;7.15;1.42;;;;;;;;;;5024717;28;20034;-65
2022/04/10 10:35:30;;;;;;;7.65;1.48;;;;;;;;;;5005407;28;20046;-65
2022/04/10 10:37:57;;;;;;;12.57;1.63;;;;;;;;;;5030203;28;20061;-64
2022/04/10 10:40:23;;;;;;;7.95;2.08;;;;;;;;;;5015277;28;20075;-65
2022/04/10 10:42:50;;;;;;;9.68;1.48;;;;;;;;;;5022412;28;20042;-66
2022/04/10 10:45:36;;;;;;;7.68;1.52;;;;;;;;;;5018564;28;20053;-67
2022/04/10 10:48:25;;;;;;;11.43;1.67;;;;;;;;;;5034548;28;20058;-66
2022/04/10 10:50:52;;;;;;;6.95;0.98;;;;;;;;;;5012883;28;20049;-70
2022/04/10 10:53:42;;;;;;;4.93;1.20;;;;;;;;;;5021063;28;20464;-68
2022/04/10 10:56:12;;;;;;;7.75;1.73;;;;;;;;;;5023020;28;20095;-68
2022/04/10 10:58:40;;;;;;;7.18;1.58;;;;;;;;;;5007314;28;20041;-69
2022/04/10 11:01:07;;;;;;;8.25;2.08;;;;;;;;;;5024314;28;20460;-67
2022/04/10 11:03:53;;;;;;;7.40;1.17;;;;;;;;;;5018472;28;20034;-68
2022/04/10 11:06:21;;;;;;;7.07;1.65;;;;;;;;;;5006883;28;20096;-68
2022/04/10 11:08:49;;;;;;;8.68;1.77;;;;;;;;;;5009259;28;20077;-68
2022/04/10 11:11:19;;;;;;;3.47;1.27;;;;;;;;;;5010769;28;20054;-66
2022/04/10 11:13:48;;;;;;;10.90;2.30;;;;;;;;;;5029236;28;20046;-68
2022/04/10 11:16:14;;;;;;;4.85;1.23;;;;;;;;;;5018425;28;20074;-65
2022/04/10 11:18:43;;;;;;;3.58;1.40;;;;;;;;;;4995551;28;20056;-66
2022/04/10 11:21:15;;;;;;;4.82;1.17;;;;;;;;;;5017028;28;20489;-69
2022/04/10 11:23:45;;;;;;;7.22;1.40;;;;;;;;;;5023774;28;20081;-68
2022/04/10 11:26:21;;;;;;;5.13;0.90;;;;;;;;;;5010698;28;20076;-67
2022/04/10 11:28:54;;;;;;;6.07;2.13;;;;;;;;;;5024110;28;20077;-65
2022/04/10 11:31:31;;;;;;;5.35;1.50;;;;;;;;;;5022821;28;20038;-69
2022/04/10 11:34:32;;;;;;;4.38;1.58;;;;;;;;;;5021201;28;20050;-70
2022/04/10 11:37:01;;;;;;;7.13;1.00;;;;;;;;;;4961793;28;20047;-71
2022/04/10 11:39:29;;;;;;;5.63;1.75;;;;;;;;;;4963788;29;20051;-67
2022/04/10 11:42:02;;;;;;;3.75;0.80;;;;;;;;;;4962588;28;20046;-64
2022/04/10 11:44:29;;;;;;;4.45;1.33;;;;;;;;;;4944471;29;20054;-67
2022/04/10 11:46:55;;;;;;;3.65;0.88;;;;;;;;;;4944102;29;20685;-66
2022/04/10 11:49:21;;;;;;;6.25;1.58;;;;;;;;;;4961726;29;20103;-66
2022/04/10 11:51:51;;;;;;;6.45;1.80;;;;;;;;;;4964679;28;20468;-66
2022/04/10 11:54:43;;;;;;;6.50;1.63;;;;;;;;;;4963052;29;20047;-65
2022/04/10 11:57:10;;;;;;;5.18;1.33;;;;;;;;;;4944040;28;20055;-64
2022/04/10 11:59:37;;;;;;;6.15;1.75;;;;;;;;;;4961289;29;20527;-67
2022/04/10 12:02:13;;;;;;;6.10;1.45;;;;;;;;;;4958982;28;20252;-65
2022/04/10 12:04:40;;;;;;;7.93;1.48;;;;;;;;;;4948575;28;20066;-63
2022/04/10 12:07:13;;;;;;;5.00;0.90;;;;;;;;;;4959892;28;20534;-64
2022/04/10 12:09:40;;;;;;;5.85;1.27;;;;;;;;;;4944464;29;20058;-66
2022/04/10 12:12:06;;;;;;;4.35;1.55;;;;;;;;;;5002477;28;20054;-62
2022/04/10 12:14:33;;;;;;;9.63;2.30;;;;;;;;;;5027483;28;20042;-64
2022/04/10 12:16:59;;;;;;;5.32;1.27;;;;;;;;;;5022210;28;20065;-65
2022/04/10 12:19:34;;;;;;;4.13;1.00;;;;;;;;;;5022863;28;20073;-65
2022/04/10 12:22:00;;;;;;;7.85;1.70;;;;;;;;;;5005798;28;20085;-65
2022/04/10 12:24:26;;;;;;;4.78;1.38;;;;;;;;;;4982621;28;20078;-63
2022/04/10 12:26:53;;;;;;;5.43;1.00;;;;;;;;;;5005652;28;20050;-64
2022/04/10 12:29:20;;;;;;;5.13;1.33;;;;;;;;;;5003782;28;20069;-64
2022/04/10 12:31:48;;;;;;;6.15;1.40;;;;;;;;;;5002180;28;20409;-64
2022/04/10 12:34:14;;;;;;;6.03;1.08;;;;;;;;;;5003429;28;20130;-65
2022/04/10 12:36:53;;;;;;;8.63;1.20;;;;;;;;;;5005242;28;20054;-63
2022/04/10 12:39:29;;;;;;;9.27;1.85;;;;;;;;;;5000620;28;20063;-67
2022/04/10 12:42:00;;;;;;;6.20;1.40;;;;;;;;;;4985253;28;20074;-64
2022/04/10 12:44:27;;;;;;;8.40;1.30;;;;;;;;;;4999614;28;20042;-64
2022/04/10 12:46:53;;;;;;;4.60;1.20;;;;;;;;;;5001358;28;20042;-62
2022/04/10 12:49:19;;;;;;;8.00;2.00;;;;;;;;;;4993072;28;20770;-62
2022/04/10 12:52:03;;;;;;;4.10;1.15;;;;;;;;;;4995262;28;20047;-65
2022/04/10 12:54:41;;;;;;;6.28;1.33;;;;;;;;;;4996215;28;20058;-66
2022/04/10 12:57:07;;;;;;;;;;;;;;;;;;4999871;28;20114;-67
2022/04/10 12:59:39;;;;;;;4.45;0.90;;;;;;;;;;5000356;28;19922;-73
2022/04/10 13:02:09;;;;;;;4.65;1.15;;;;;;;;;;4986627;28;20112;-73
2022/04/10 13:04:35;;;;;;;6.85;1.63;;;;;;;;;;5002060;28;20042;-72
2022/04/10 13:07:02;;;;;;;8.27;1.50;;;;;;;;;;5005383;28;20073;-73
2022/04/10 13:09:28;;;;;;;4.65;1.17;;;;;;;;;;5006857;28;20045;-65
2022/04/10 13:11:54;;;;;;;7.45;1.77;;;;;;;;;;4982587;28;20057;-66
2022/04/10 13:14:20;;;;;;;6.78;1.70;;;;;;;;;;4986737;28;20134;-67
2022/04/10 13:16:47;;;;;;;4.85;1.10;;;;;;;;;;5007539;28;20498;-65
2022/04/10 13:19:23;;;;;;;3.63;1.50;;;;;;;;;;5005883;28;20042;-68
2022/04/10 13:21:49;;;;;;;7.47;1.33;;;;;;;;;;5005689;28;20046;-66
2022/04/10 13:24:16;;;;;;;5.75;1.23;;;;;;;;;;5024038;28;20057;-65
2022/04/10 13:26:42;;;;;;;6.07;1.10;;;;;;;;;;4990312;28;20042;-65
2022/04/10 13:29:14;;;;;;;5.93;1.42;;;;;;;;;;5005538;28;20058;-65
2022/04/10 13:31:41;;;;;;;5.07;1.00;;;;;;;;;;5024656;28;20041;-63
2022/04/10 13:34:07;;;;;;;6.32;1.20;;;;;;;;;;5021674;28;20046;-65
2022/04/10 13:36:36;;;;;;;5.53;1.10;;;;;;;;;;5020636;28;20034;-66
2022/04/10 13:39:02;;;;;;;4.47;1.13;;;;;;;;;;5021329;28;20737;-65
2022/04/10 13:41:28;;;;;;;6.80;1.05;;;;;;;;;;5020541;28;20636;-64
2022/04/10 13:43:54;;;;;;;7.30;1.98;;;;;;;;;;5025743;28;20117;-65
2022/04/10 13:46:20;;;;;;;4.72;1.10;;;;;;;;;;5026543;28;20053;-66
2022/04/10 13:48:46;;;;;;;4.63;1.00;;;;;;;;;;5026541;28;20049;-65
2022/04/10 13:51:13;;;;;;;4.78;1.10;;;;;;;;;;5026764;28;20053;-65
2022/04/10 13:53:39;;;;;;;3.83;0.77;;;;;;;;;;5033025;28;20057;-66
2022/04/10 13:56:05;;;;;;;4.60;1.27;;;;;;;;;;5028837;28;20033;-65
2022/04/10 13:58:31;;;;;;;3.42;1.00;;;;;;;;;;5046466;28;20099;-65
2022/04/10 14:00:57;;;;;;;4.65;0.90;;;;;;;;;;5046688;28;20099;-66
2022/04/10 14:03:24;;;;;;;7.47;1.55;;;;;;;;;;5034056;28;20038;-67
2022/04/10 14:05:50;;;;;;;6.97;1.20;;;;;;;;;;5026519;28;20041;-66
2022/04/10 14:08:16;;;;;;;3.92;1.25;;;;;;;;;;5026526;28;20128;-65
2022/04/10 14:10:43;;;;;;;10.23;1.75;;;;;;;;;;5026483;28;20042;-66
2022/04/10 14:13:09;;;;;;;4.60;1.10;;;;;;;;;;5016773;28;20046;-66
2022/04/10 14:15:35;;;;;;;7.22;1.15;;;;;;;;;;5007075;28;20118;-65
2022/04/10 14:18:01;;;;;;;4.50;1.33;;;;;;;;;;5008100;28;20046;-66
2022/04/10 14:20:27;;;;;;;7.88;1.67;;;;;;;;;;5025208;28;20445;-66
2022/04/10 14:22:54;;;;;;;5.43;1.13;;;;;;;;;;5018104;28;20054;-66
2022/04/10 14:25:20;;;;;;;7.07;1.00;;;;;;;;;;5024163;28;20528;-66
2022/04/10 14:27:46;;;;;;;4.97;1.20;;;;;;;;;;5025505;28;20045;-66
2022/04/10 14:30:13;;;;;;;3.92;1.15;;;;;;;;;;5023144;28;20049;-65
2022/04/10 14:32:42;;;;;;;3.33;0.93;;;;;;;;;;5019691;28;20045;-66
2022/04/10 14:35:08;;;;;;;2.97;1.10;;;;;;;;;;5024160;28;20044;-66
2022/04/10 14:37:34;;;;;;;5.30;1.33;;;;;;;;;;5024001;28;20046;-66
2022/04/10 14:40:00;;;;;;;6.25;1.05;;;;;;;;;;5023190;28;20104;-66
2022/04/10 14:42:27;;;;;;;8.68;1.17;;;;;;;;;;5005436;28;20044;-65
2022/04/10 14:44:53;;;;;;;4.22;1.00;;;;;;;;;;5023259;28;20041;-66